sensor_id;sensor_type;location;lat;lon;timestamp;P1;durP1;ratioP1;P2;durP2;ratioP2
9974;SDS011;5028;50.974;4.968;2022-08-19T00:02:15;15.23;;;13.73;;
9974;SDS011;5028;50.974;4.968;2022-08-19T00:04:45;14.17;;;12.77;;
9974;SDS011;5028;50.974;4.968;2022-08-19T00:07:22;14.37;;;12.93;;
9974;SDS011;5028;50.974;4.968;2022-08-19T00:09:51;14.93;;;13.53;;
9974;SDS011;5028;50.974;4.968;2022-08-19T00:12:26;14.23;;;12.97;;
9974;SDS011;5028;50.974;4.968;2022-08-19T00:15:02;15.43;;;14.00;;
9974;SDS011;5028;50.974;4.968;2022-08-19T00:17:38;14.33;;;13.07;;
9974;SDS011;5028;50.974;4.968;2022-08-19T00:20:17;14.50;;;13.10;;
9974;SDS011;5028;50.974;4.968;2022-08-19T00:22:53;15.17;;;13.40;;
9974;SDS011;5028;50.974;4.968;2022-08-19T00:25:22;15.60;;;13.93;;
9974;SDS011;5028;50.974;4.968;2022-08-19T00:27:57;15.10;;;13.80;;
9974;SDS011;5028;50.974;4.968;2022-08-19T00:30:26;15.60;;;14.07;;
9974;SDS011;5028;50.974;4.968;2022-08-19T00:33:00;15.50;;;14.20;;
9974;SDS011;5028;50.974;4.968;2022-08-19T00:35:30;14.73;;;13.50;;
9974;SDS011;5028;50.974;4.968;2022-08-19T00:38:06;14.50;;;13.30;;
9974;SDS011;5028;50.974;4.968;2022-08-19T00:40:35;14.43;;;13.23;;
9974;SDS011;5028;50.974;4.968;2022-08-19T00:43:10;14.30;;;12.90;;
9974;SDS011;5028;50.974;4.968;2022-08-19T00:45:40;14.23;;;12.83;;
9974;SDS011;5028;50.974;4.968;2022-08-19T00:48:17;14.60;;;13.20;;
9974;SDS011;5028;50.974;4.968;2022-08-19T00:50:48;15.60;;;14.10;;
9974;SDS011;5028;50.974;4.968;2022-08-19T00:53:26;15.90;;;14.43;;
9974;SDS011;5028;50.974;4.968;2022-08-19T00:55:58;16.13;;;14.63;;
9974;SDS011;5028;50.974;4.968;2022-08-19T00:58:34;18.07;;;16.47;;
9974;SDS011;5028;50.974;4.968;2022-08-19T01:01:04;18.90;;;17.20;;
9974;SDS011;5028;50.974;4.968;2022-08-19T01:03:41;18.77;;;17.03;;
9974;SDS011;5028;50.974;4.968;2022-08-19T01:06:25;20.23;;;18.43;;
9974;SDS011;5028;50.974;4.968;2022-08-19T01:09:01;20.40;;;18.60;;
9974;SDS011;5028;50.974;4.968;2022-08-19T01:11:29;22.10;;;19.80;;
9974;SDS011;5028;50.974;4.968;2022-08-19T01:14:06;22.40;;;20.17;;
9974;SDS011;5028;50.974;4.968;2022-08-19T01:16:42;21.97;;;20.00;;
9974;SDS011;5028;50.974;4.968;2022-08-19T01:19:21;21.13;;;19.33;;
9974;SDS011;5028;50.974;4.968;2022-08-19T01:21:55;22.23;;;20.13;;
9974;SDS011;5028;50.974;4.968;2022-08-19T01:24:41;21.57;;;19.57;;
9974;SDS011;5028;50.974;4.968;2022-08-19T01:27:15;23.23;;;20.93;;
9974;SDS011;5028;50.974;4.968;2022-08-19T01:29:50;24.63;;;22.23;;
9974;SDS011;5028;50.974;4.968;2022-08-19T01:32:19;25.13;;;22.87;;
9974;SDS011;5028;50.974;4.968;2022-08-19T01:34:59;26.40;;;23.90;;
9974;SDS011;5028;50.974;4.968;2022-08-19T01:37:29;25.00;;;22.70;;
9974;SDS011;5028;50.974;4.968;2022-08-19T01:40:16;26.37;;;23.77;;
9974;SDS011;5028;50.974;4.968;2022-08-19T01:42:47;27.87;;;25.27;;
9974;SDS011;5028;50.974;4.968;2022-08-19T01:45:23;27.80;;;24.90;;
9974;SDS011;5028;50.974;4.968;2022-08-19T01:47:53;28.43;;;25.77;;
9974;SDS011;5028;50.974;4.968;2022-08-19T01:50:29;27.70;;;25.00;;
9974;SDS011;5028;50.974;4.968;2022-08-19T01:52:58;27.60;;;24.90;;
9974;SDS011;5028;50.974;4.968;2022-08-19T01:55:37;29.63;;;26.73;;
9974;SDS011;5028;50.974;4.968;2022-08-19T01:58:08;28.93;;;26.23;;
9974;SDS011;5028;50.974;4.968;2022-08-19T02:00:45;30.30;;;27.20;;
9974;SDS011;5028;50.974;4.968;2022-08-19T02:03:14;29.73;;;26.77;;
9974;SDS011;5028;50.974;4.968;2022-08-19T02:05:53;31.83;;;28.60;;
9974;SDS011;5028;50.974;4.968;2022-08-19T02:08:22;34.13;;;30.73;;
9974;SDS011;5028;50.974;4.968;2022-08-19T02:10:59;35.47;;;31.37;;
9974;SDS011;5028;50.974;4.968;2022-08-19T02:13:27;34.60;;;31.00;;
9974;SDS011;5028;50.974;4.968;2022-08-19T02:16:03;35.33;;;30.73;;
9974;SDS011;5028;50.974;4.968;2022-08-19T02:18:45;35.83;;;32.13;;
9974;SDS011;5028;50.974;4.968;2022-08-19T02:21:22;36.90;;;33.00;;
9974;SDS011;5028;50.974;4.968;2022-08-19T02:23:51;35.73;;;31.77;;
9974;SDS011;5028;50.974;4.968;2022-08-19T02:26:28;38.03;;;33.93;;
9974;SDS011;5028;50.974;4.968;2022-08-19T02:28:57;37.17;;;33.23;;
9974;SDS011;5028;50.974;4.968;2022-08-19T02:31:32;40.13;;;34.53;;
9974;SDS011;5028;50.974;4.968;2022-08-19T02:34:01;38.30;;;34.13;;
9974;SDS011;5028;50.974;4.968;2022-08-19T02:36:37;37.50;;;33.60;;
9974;SDS011;5028;50.974;4.968;2022-08-19T02:39:07;37.67;;;33.37;;
9974;SDS011;5028;50.974;4.968;2022-08-19T02:41:43;38.63;;;34.17;;
9974;SDS011;5028;50.974;4.968;2022-08-19T02:44:12;40.53;;;35.90;;
9974;SDS011;5028;50.974;4.968;2022-08-19T02:46:56;39.13;;;33.67;;
9974;SDS011;5028;50.974;4.968;2022-08-19T02:49:25;40.67;;;35.00;;
9974;SDS011;5028;50.974;4.968;2022-08-19T02:52:01;39.73;;;35.43;;
9974;SDS011;5028;50.974;4.968;2022-08-19T02:54:30;38.70;;;34.50;;
9974;SDS011;5028;50.974;4.968;2022-08-19T02:57:06;39.43;;;35.13;;
9974;SDS011;5028;50.974;4.968;2022-08-19T02:59:35;46.03;;;36.50;;
9974;SDS011;5028;50.974;4.968;2022-08-19T03:02:10;41.53;;;36.37;;
9974;SDS011;5028;50.974;4.968;2022-08-19T03:04:38;41.93;;;36.50;;
9974;SDS011;5028;50.974;4.968;2022-08-19T03:07:14;40.87;;;36.40;;
9974;SDS011;5028;50.974;4.968;2022-08-19T03:09:42;42.07;;;37.13;;
9974;SDS011;5028;50.974;4.968;2022-08-19T03:12:19;43.03;;;35.77;;
9974;SDS011;5028;50.974;4.968;2022-08-19T03:14:47;42.30;;;35.93;;
9974;SDS011;5028;50.974;4.968;2022-08-19T03:17:23;43.67;;;36.27;;
9974;SDS011;5028;50.974;4.968;2022-08-19T03:19:58;41.63;;;35.50;;
9974;SDS011;5028;50.974;4.968;2022-08-19T03:22:33;42.47;;;36.50;;
9974;SDS011;5028;50.974;4.968;2022-08-19T03:25:01;43.90;;;36.67;;
9974;SDS011;5028;50.974;4.968;2022-08-19T03:27:37;44.50;;;37.43;;
9974;SDS011;5028;50.974;4.968;2022-08-19T03:30:06;46.47;;;37.03;;
9974;SDS011;5028;50.974;4.968;2022-08-19T03:32:48;42.80;;;35.43;;
9974;SDS011;5028;50.974;4.968;2022-08-19T03:35:22;44.57;;;36.40;;
9974;SDS011;5028;50.974;4.968;2022-08-19T03:37:57;39.57;;;35.13;;
9974;SDS011;5028;50.974;4.968;2022-08-19T03:40:26;40.80;;;36.20;;
9974;SDS011;5028;50.974;4.968;2022-08-19T03:43:04;43.57;;;37.20;;
9974;SDS011;5028;50.974;4.968;2022-08-19T03:45:32;40.37;;;34.77;;
9974;SDS011;5028;50.974;4.968;2022-08-19T03:48:08;40.57;;;34.83;;
9974;SDS011;5028;50.974;4.968;2022-08-19T03:50:38;38.47;;;34.20;;
9974;SDS011;5028;50.974;4.968;2022-08-19T03:53:13;36.97;;;32.67;;
9974;SDS011;5028;50.974;4.968;2022-08-19T03:55:41;36.90;;;32.53;;
9974;SDS011;5028;50.974;4.968;2022-08-19T03:58:18;35.23;;;30.80;;
9974;SDS011;5028;50.974;4.968;2022-08-19T04:00:46;37.03;;;32.90;;
9974;SDS011;5028;50.974;4.968;2022-08-19T04:03:22;34.40;;;30.73;;
9974;SDS011;5028;50.974;4.968;2022-08-19T04:05:50;34.70;;;30.93;;
9974;SDS011;5028;50.974;4.968;2022-08-19T04:08:26;35.77;;;31.37;;
9974;SDS011;5028;50.974;4.968;2022-08-19T04:10:54;34.57;;;30.97;;
9974;SDS011;5028;50.974;4.968;2022-08-19T04:13:30;37.33;;;32.30;;
9974;SDS011;5028;50.974;4.968;2022-08-19T04:16:05;37.20;;;32.57;;
9974;SDS011;5028;50.974;4.968;2022-08-19T04:18:41;38.70;;;32.77;;
9974;SDS011;5028;50.974;4.968;2022-08-19T04:21:14;38.50;;;32.37;;
9974;SDS011;5028;50.974;4.968;2022-08-19T04:23:50;39.20;;;33.07;;
9974;SDS011;5028;50.974;4.968;2022-08-19T04:26:21;37.57;;;33.37;;
9974;SDS011;5028;50.974;4.968;2022-08-19T04:29:01;41.27;;;34.63;;
9974;SDS011;5028;50.974;4.968;2022-08-19T04:31:37;38.40;;;33.23;;
9974;SDS011;5028;50.974;4.968;2022-08-19T04:34:15;40.43;;;33.20;;
9974;SDS011;5028;50.974;4.968;2022-08-19T04:36:48;39.53;;;34.53;;
9974;SDS011;5028;50.974;4.968;2022-08-19T04:39:25;36.37;;;31.50;;
9974;SDS011;5028;50.974;4.968;2022-08-19T04:42:12;35.57;;;30.97;;
9974;SDS011;5028;50.974;4.968;2022-08-19T04:45:07;36.80;;;32.33;;
9974;SDS011;5028;50.974;4.968;2022-08-19T04:47:38;35.93;;;31.70;;
9974;SDS011;5028;50.974;4.968;2022-08-19T04:50:23;37.10;;;32.73;;
9974;SDS011;5028;50.974;4.968;2022-08-19T04:52:53;38.53;;;31.97;;
9974;SDS011;5028;50.974;4.968;2022-08-19T04:55:29;37.80;;;33.63;;
9974;SDS011;5028;50.974;4.968;2022-08-19T04:58:03;36.63;;;30.83;;
9974;SDS011;5028;50.974;4.968;2022-08-19T05:00:39;39.43;;;33.37;;
9974;SDS011;5028;50.974;4.968;2022-08-19T05:03:08;39.27;;;33.17;;
9974;SDS011;5028;50.974;4.968;2022-08-19T05:05:43;40.33;;;32.27;;
9974;SDS011;5028;50.974;4.968;2022-08-19T05:08:16;38.00;;;32.53;;
9974;SDS011;5028;50.974;4.968;2022-08-19T05:10:56;34.87;;;29.20;;
9974;SDS011;5028;50.974;4.968;2022-08-19T05:13:26;32.33;;;28.83;;
9974;SDS011;5028;50.974;4.968;2022-08-19T05:16:03;33.50;;;28.93;;
9974;SDS011;5028;50.974;4.968;2022-08-19T05:18:44;37.37;;;29.23;;
9974;SDS011;5028;50.974;4.968;2022-08-19T05:21:37;33.93;;;30.00;;
9974;SDS011;5028;50.974;4.968;2022-08-19T05:24:25;34.60;;;29.10;;
9974;SDS011;5028;50.974;4.968;2022-08-19T05:27:00;33.37;;;28.40;;
9974;SDS011;5028;50.974;4.968;2022-08-19T05:29:32;32.27;;;28.53;;
9974;SDS011;5028;50.974;4.968;2022-08-19T05:32:09;35.80;;;29.57;;
9974;SDS011;5028;50.974;4.968;2022-08-19T05:34:37;35.57;;;31.23;;
9974;SDS011;5028;50.974;4.968;2022-08-19T05:37:12;37.23;;;31.50;;
9974;SDS011;5028;50.974;4.968;2022-08-19T05:39:40;36.03;;;30.97;;
9974;SDS011;5028;50.974;4.968;2022-08-19T05:42:17;31.17;;;27.83;;
9974;SDS011;5028;50.974;4.968;2022-08-19T05:44:46;32.10;;;27.07;;
9974;SDS011;5028;50.974;4.968;2022-08-19T05:47:23;31.63;;;27.73;;
9974;SDS011;5028;50.974;4.968;2022-08-19T05:49:51;30.57;;;27.30;;
9974;SDS011;5028;50.974;4.968;2022-08-19T05:52:26;29.83;;;25.80;;
9974;SDS011;5028;50.974;4.968;2022-08-19T05:54:55;29.97;;;26.77;;
9974;SDS011;5028;50.974;4.968;2022-08-19T05:57:30;29.07;;;26.07;;
9974;SDS011;5028;50.974;4.968;2022-08-19T05:59:58;30.33;;;26.13;;
9974;SDS011;5028;50.974;4.968;2022-08-19T06:02:37;29.80;;;25.43;;
9974;SDS011;5028;50.974;4.968;2022-08-19T06:05:06;30.20;;;25.10;;
9974;SDS011;5028;50.974;4.968;2022-08-19T06:07:42;28.90;;;24.70;;
9974;SDS011;5028;50.974;4.968;2022-08-19T06:10:10;25.73;;;22.97;;
9974;SDS011;5028;50.974;4.968;2022-08-19T06:12:46;27.13;;;22.63;;
9974;SDS011;5028;50.974;4.968;2022-08-19T06:15:15;25.60;;;21.97;;
9974;SDS011;5028;50.974;4.968;2022-08-19T06:17:51;23.97;;;21.53;;
9974;SDS011;5028;50.974;4.968;2022-08-19T06:20:27;24.67;;;22.07;;
9974;SDS011;5028;50.974;4.968;2022-08-19T06:23:21;23.00;;;20.60;;
9974;SDS011;5028;50.974;4.968;2022-08-19T06:25:49;23.93;;;19.23;;
9974;SDS011;5028;50.974;4.968;2022-08-19T06:28:24;21.90;;;19.70;;
9974;SDS011;5028;50.974;4.968;2022-08-19T06:31:59;22.30;;;19.20;;
9974;SDS011;5028;50.974;4.968;2022-08-19T06:34:03;23.40;;;17.67;;
9974;SDS011;5028;50.974;4.968;2022-08-19T06:36:33;19.83;;;17.20;;
9974;SDS011;5028;50.974;4.968;2022-08-19T06:39:15;19.10;;;16.90;;
9974;SDS011;5028;50.974;4.968;2022-08-19T06:41:46;20.13;;;17.03;;
9974;SDS011;5028;50.974;4.968;2022-08-19T06:44:25;19.27;;;16.60;;
9974;SDS011;5028;50.974;4.968;2022-08-19T06:46:57;19.90;;;15.43;;
9974;SDS011;5028;50.974;4.968;2022-08-19T06:49:41;18.87;;;15.57;;
9974;SDS011;5028;50.974;4.968;2022-08-19T06:52:10;19.53;;;16.03;;
9974;SDS011;5028;50.974;4.968;2022-08-19T06:54:46;18.40;;;14.60;;
9974;SDS011;5028;50.974;4.968;2022-08-19T06:57:22;16.57;;;14.37;;
9974;SDS011;5028;50.974;4.968;2022-08-19T06:59:57;17.93;;;14.43;;
9974;SDS011;5028;50.974;4.968;2022-08-19T07:02:26;16.13;;;13.63;;
9974;SDS011;5028;50.974;4.968;2022-08-19T07:05:03;14.43;;;12.93;;
9974;SDS011;5028;50.974;4.968;2022-08-19T07:07:32;15.47;;;13.83;;
9974;SDS011;5028;50.974;4.968;2022-08-19T07:10:08;15.83;;;12.90;;
9974;SDS011;5028;50.974;4.968;2022-08-19T07:12:38;15.37;;;12.77;;
9974;SDS011;5028;50.974;4.968;2022-08-19T07:15:13;17.33;;;12.23;;
9974;SDS011;5028;50.974;4.968;2022-08-19T07:17:50;19.37;;;12.70;;
9974;SDS011;5028;50.974;4.968;2022-08-19T07:20:27;14.77;;;12.30;;
9974;SDS011;5028;50.974;4.968;2022-08-19T07:22:56;13.83;;;11.70;;
9974;SDS011;5028;50.974;4.968;2022-08-19T07:25:32;12.40;;;9.67;;
9974;SDS011;5028;50.974;4.968;2022-08-19T07:28:01;11.40;;;9.63;;
9974;SDS011;5028;50.974;4.968;2022-08-19T07:30:49;12.97;;;9.53;;
9974;SDS011;5028;50.974;4.968;2022-08-19T07:33:25;12.67;;;8.70;;
9974;SDS011;5028;50.974;4.968;2022-08-19T07:35:55;12.43;;;8.20;;
9974;SDS011;5028;50.974;4.968;2022-08-19T07:38:32;10.40;;;7.70;;
9974;SDS011;5028;50.974;4.968;2022-08-19T07:41:01;13.23;;;7.97;;
9974;SDS011;5028;50.974;4.968;2022-08-19T07:43:36;12.53;;;8.53;;
9974;SDS011;5028;50.974;4.968;2022-08-19T07:46:05;9.47;;;7.63;;
9974;SDS011;5028;50.974;4.968;2022-08-19T07:48:40;11.97;;;8.47;;
9974;SDS011;5028;50.974;4.968;2022-08-19T07:51:12;10.33;;;7.90;;
9974;SDS011;5028;50.974;4.968;2022-08-19T07:54:02;13.70;;;8.33;;
9974;SDS011;5028;50.974;4.968;2022-08-19T07:56:31;8.80;;;7.67;;
9974;SDS011;5028;50.974;4.968;2022-08-19T07:59:06;8.30;;;6.87;;
9974;SDS011;5028;50.974;4.968;2022-08-19T08:01:35;10.17;;;7.80;;
9974;SDS011;5028;50.974;4.968;2022-08-19T08:04:12;10.20;;;7.87;;
9974;SDS011;5028;50.974;4.968;2022-08-19T08:07:02;12.03;;;7.90;;
9974;SDS011;5028;50.974;4.968;2022-08-19T08:10:01;12.07;;;8.00;;
9974;SDS011;5028;50.974;4.968;2022-08-19T08:12:39;7.77;;;6.97;;
9974;SDS011;5028;50.974;4.968;2022-08-19T08:15:34;10.77;;;7.97;;
9974;SDS011;5028;50.974;4.968;2022-08-19T08:18:09;8.10;;;7.03;;
9974;SDS011;5028;50.974;4.968;2022-08-19T08:20:55;9.57;;;7.40;;
9974;SDS011;5028;50.974;4.968;2022-08-19T08:23:25;8.40;;;6.93;;
9974;SDS011;5028;50.974;4.968;2022-08-19T08:26:05;7.97;;;6.97;;
9974;SDS011;5028;50.974;4.968;2022-08-19T08:28:33;8.47;;;6.73;;
9974;SDS011;5028;50.974;4.968;2022-08-19T08:31:14;6.70;;;5.70;;
9974;SDS011;5028;50.974;4.968;2022-08-19T08:33:45;7.77;;;5.37;;
9974;SDS011;5028;50.974;4.968;2022-08-19T08:36:22;8.80;;;6.30;;
9974;SDS011;5028;50.974;4.968;2022-08-19T08:38:53;8.80;;;6.07;;
9974;SDS011;5028;50.974;4.968;2022-08-19T08:41:31;7.50;;;6.47;;
9974;SDS011;5028;50.974;4.968;2022-08-19T08:44:11;6.53;;;4.37;;
9974;SDS011;5028;50.974;4.968;2022-08-19T08:46:51;6.57;;;5.20;;
9974;SDS011;5028;50.974;4.968;2022-08-19T08:49:26;7.50;;;4.73;;
9974;SDS011;5028;50.974;4.968;2022-08-19T08:52:10;6.77;;;4.63;;
9974;SDS011;5028;50.974;4.968;2022-08-19T08:54:45;5.17;;;4.20;;
9974;SDS011;5028;50.974;4.968;2022-08-19T08:57:24;6.27;;;3.90;;
9974;SDS011;5028;50.974;4.968;2022-08-19T09:00:08;7.23;;;4.30;;
9974;SDS011;5028;50.974;4.968;2022-08-19T09:02:46;4.83;;;3.87;;
9974;SDS011;5028;50.974;4.968;2022-08-19T09:05:16;5.10;;;4.10;;
9974;SDS011;5028;50.974;4.968;2022-08-19T09:08:06;5.20;;;3.67;;
9974;SDS011;5028;50.974;4.968;2022-08-19T09:10:40;5.43;;;4.07;;
9974;SDS011;5028;50.974;4.968;2022-08-19T09:13:21;7.27;;;3.57;;
9974;SDS011;5028;50.974;4.968;2022-08-19T09:16:04;4.83;;;3.13;;
9974;SDS011;5028;50.974;4.968;2022-08-19T09:18:48;6.57;;;3.40;;
9974;SDS011;5028;50.974;4.968;2022-08-19T09:21:19;6.17;;;3.30;;
9974;SDS011;5028;50.974;4.968;2022-08-19T09:23:59;4.70;;;3.20;;
9974;SDS011;5028;50.974;4.968;2022-08-19T09:26:30;5.17;;;3.23;;
9974;SDS011;5028;50.974;4.968;2022-08-19T09:29:17;6.57;;;3.03;;
9974;SDS011;5028;50.974;4.968;2022-08-19T09:31:48;6.57;;;3.17;;
9974;SDS011;5028;50.974;4.968;2022-08-19T09:34:23;4.63;;;3.20;;
9974;SDS011;5028;50.974;4.968;2022-08-19T09:36:52;4.30;;;3.17;;
9974;SDS011;5028;50.974;4.968;2022-08-19T09:39:28;4.77;;;3.13;;
9974;SDS011;5028;50.974;4.968;2022-08-19T09:42:03;4.60;;;2.90;;
9974;SDS011;5028;50.974;4.968;2022-08-19T09:44:55;3.97;;;3.10;;
9974;SDS011;5028;50.974;4.968;2022-08-19T09:47:25;3.07;;;2.70;;
9974;SDS011;5028;50.974;4.968;2022-08-19T09:50:02;4.63;;;3.07;;
9974;SDS011;5028;50.974;4.968;2022-08-19T09:52:32;5.83;;;3.20;;
9974;SDS011;5028;50.974;4.968;2022-08-19T09:55:22;5.03;;;2.93;;
9974;SDS011;5028;50.974;4.968;2022-08-19T09:58:00;3.93;;;3.10;;
9974;SDS011;5028;50.974;4.968;2022-08-19T10:00:36;3.67;;;3.10;;
9974;SDS011;5028;50.974;4.968;2022-08-19T10:03:05;6.63;;;2.93;;
9974;SDS011;5028;50.974;4.968;2022-08-19T10:05:40;6.67;;;3.50;;
9974;SDS011;5028;50.974;4.968;2022-08-19T10:08:21;4.67;;;3.60;;
9974;SDS011;5028;50.974;4.968;2022-08-19T10:10:59;4.87;;;3.30;;
9974;SDS011;5028;50.974;4.968;2022-08-19T10:13:50;4.83;;;3.10;;
9974;SDS011;5028;50.974;4.968;2022-08-19T10:16:25;5.40;;;3.30;;
9974;SDS011;5028;50.974;4.968;2022-08-19T10:19:12;7.07;;;3.30;;
9974;SDS011;5028;50.974;4.968;2022-08-19T10:21:51;4.53;;;3.60;;
9974;SDS011;5028;50.974;4.968;2022-08-19T10:24:25;6.53;;;3.80;;
9974;SDS011;5028;50.974;4.968;2022-08-19T10:27:01;5.97;;;3.90;;
9974;SDS011;5028;50.974;4.968;2022-08-19T10:29:35;5.33;;;3.50;;
9974;SDS011;5028;50.974;4.968;2022-08-19T10:32:11;4.27;;;3.37;;
9974;SDS011;5028;50.974;4.968;2022-08-19T10:34:48;5.93;;;3.63;;
9974;SDS011;5028;50.974;4.968;2022-08-19T10:37:38;8.83;;;3.63;;
9974;SDS011;5028;50.974;4.968;2022-08-19T10:40:22;4.37;;;3.50;;
9974;SDS011;5028;50.974;4.968;2022-08-19T10:42:51;5.80;;;3.23;;
9974;SDS011;5028;50.974;4.968;2022-08-19T10:45:28;6.97;;;3.90;;
9974;SDS011;5028;50.974;4.968;2022-08-19T10:47:56;5.53;;;3.67;;
9974;SDS011;5028;50.974;4.968;2022-08-19T10:50:25;5.43;;;3.60;;
9974;SDS011;5028;50.974;4.968;2022-08-19T10:53:17;4.57;;;3.40;;
9974;SDS011;5028;50.974;4.968;2022-08-19T10:55:56;5.63;;;3.50;;
9974;SDS011;5028;50.974;4.968;2022-08-19T10:58:42;5.77;;;3.50;;
9974;SDS011;5028;50.974;4.968;2022-08-19T11:01:18;5.17;;;3.03;;
9974;SDS011;5028;50.974;4.968;2022-08-19T11:03:47;5.13;;;3.40;;
9974;SDS011;5028;50.974;4.968;2022-08-19T11:06:22;5.73;;;3.50;;
9974;SDS011;5028;50.974;4.968;2022-08-19T11:08:51;4.87;;;3.30;;
9974;SDS011;5028;50.974;4.968;2022-08-19T11:11:27;4.13;;;3.30;;
9974;SDS011;5028;50.974;4.968;2022-08-19T11:13:56;6.93;;;3.10;;
9974;SDS011;5028;50.974;4.968;2022-08-19T11:16:33;6.87;;;3.17;;
9974;SDS011;5028;50.974;4.968;2022-08-19T11:19:15;3.90;;;2.80;;
9974;SDS011;5028;50.974;4.968;2022-08-19T11:21:52;3.80;;;3.30;;
9974;SDS011;5028;50.974;4.968;2022-08-19T11:24:25;5.17;;;3.10;;
9974;SDS011;5028;50.974;4.968;2022-08-19T11:27:02;4.23;;;3.30;;
9974;SDS011;5028;50.974;4.968;2022-08-19T11:29:32;3.77;;;3.23;;
9974;SDS011;5028;50.974;4.968;2022-08-19T11:32:10;4.90;;;2.90;;
9974;SDS011;5028;50.974;4.968;2022-08-19T11:34:39;4.97;;;3.40;;
9974;SDS011;5028;50.974;4.968;2022-08-19T11:37:14;3.33;;;2.97;;
9974;SDS011;5028;50.974;4.968;2022-08-19T11:39:42;4.10;;;3.43;;
9974;SDS011;5028;50.974;4.968;2022-08-19T11:42:19;3.80;;;3.50;;
9974;SDS011;5028;50.974;4.968;2022-08-19T11:45:05;4.10;;;3.70;;
9974;SDS011;5028;50.974;4.968;2022-08-19T11:47:44;4.23;;;3.33;;
9974;SDS011;5028;50.974;4.968;2022-08-19T11:50:13;4.67;;;3.27;;
9974;SDS011;5028;50.974;4.968;2022-08-19T11:52:48;3.47;;;2.97;;
9974;SDS011;5028;50.974;4.968;2022-08-19T11:55:17;3.97;;;3.20;;
9974;SDS011;5028;50.974;4.968;2022-08-19T11:57:52;4.10;;;2.73;;
9974;SDS011;5028;50.974;4.968;2022-08-19T12:00:21;4.27;;;3.00;;
9974;SDS011;5028;50.974;4.968;2022-08-19T12:02:58;4.03;;;3.00;;
9974;SDS011;5028;50.974;4.968;2022-08-19T12:05:26;3.77;;;3.37;;
9974;SDS011;5028;50.974;4.968;2022-08-19T12:08:01;5.87;;;3.00;;
9974;SDS011;5028;50.974;4.968;2022-08-19T12:10:30;5.50;;;3.33;;
9974;SDS011;5028;50.974;4.968;2022-08-19T12:13:05;3.17;;;2.80;;
9974;SDS011;5028;50.974;4.968;2022-08-19T12:15:35;3.10;;;2.60;;
9974;SDS011;5028;50.974;4.968;2022-08-19T12:18:12;4.90;;;2.87;;
9974;SDS011;5028;50.974;4.968;2022-08-19T12:20:47;4.90;;;2.67;;
9974;SDS011;5028;50.974;4.968;2022-08-19T12:23:24;4.10;;;2.53;;
9974;SDS011;5028;50.974;4.968;2022-08-19T12:25:53;3.70;;;2.97;;
9974;SDS011;5028;50.974;4.968;2022-08-19T12:28:30;2.88;;;2.42;;
9974;SDS011;5028;50.974;4.968;2022-08-19T12:30:58;2.50;;;2.30;;
9974;SDS011;5028;50.974;4.968;2022-08-19T12:33:35;3.75;;;2.45;;
9974;SDS011;5028;50.974;4.968;2022-08-19T12:36:05;2.27;;;2.00;;
9974;SDS011;5028;50.974;4.968;2022-08-19T12:38:42;2.50;;;1.90;;
9974;SDS011;5028;50.974;4.968;2022-08-19T12:41:12;2.80;;;1.90;;
9974;SDS011;5028;50.974;4.968;2022-08-19T12:43:51;2.40;;;2.20;;
9974;SDS011;5028;50.974;4.968;2022-08-19T12:46:20;2.50;;;2.20;;
9974;SDS011;5028;50.974;4.968;2022-08-19T12:48:58;3.07;;;2.27;;
9974;SDS011;5028;50.974;4.968;2022-08-19T12:51:34;4.75;;;2.92;;
9974;SDS011;5028;50.974;4.968;2022-08-19T12:54:09;2.83;;;2.53;;
9974;SDS011;5028;50.974;4.968;2022-08-19T12:56:38;3.93;;;2.73;;
9974;SDS011;5028;50.974;4.968;2022-08-19T12:59:13;2.90;;;2.70;;
9974;SDS011;5028;50.974;4.968;2022-08-19T13:01:43;5.97;;;3.10;;
9974;SDS011;5028;50.974;4.968;2022-08-19T13:04:20;3.10;;;2.83;;
9974;SDS011;5028;50.974;4.968;2022-08-19T13:06:48;2.92;;;2.63;;
9974;SDS011;5028;50.974;4.968;2022-08-19T13:09:23;2.47;;;2.27;;
9974;SDS011;5028;50.974;4.968;2022-08-19T13:11:52;3.95;;;2.80;;
9974;SDS011;5028;50.974;4.968;2022-08-19T13:14:26;4.23;;;2.67;;
9974;SDS011;5028;50.974;4.968;2022-08-19T13:17:05;3.22;;;2.92;;
9974;SDS011;5028;50.974;4.968;2022-08-19T13:19:42;4.75;;;3.38;;
9974;SDS011;5028;50.974;4.968;2022-08-19T13:22:17;3.50;;;3.28;;
9974;SDS011;5028;50.974;4.968;2022-08-19T13:24:51;2.97;;;2.78;;
9974;SDS011;5028;50.974;4.968;2022-08-19T13:27:20;3.42;;;3.13;;
9974;SDS011;5028;50.974;4.968;2022-08-19T13:29:55;3.92;;;2.80;;
9974;SDS011;5028;50.974;4.968;2022-08-19T13:32:55;4.13;;;2.90;;
9974;SDS011;5028;50.974;4.968;2022-08-19T13:35:50;4.13;;;2.80;;
9974;SDS011;5028;50.974;4.968;2022-08-19T13:38:24;2.97;;;2.78;;
9974;SDS011;5028;50.974;4.968;2022-08-19T13:41:03;3.50;;;3.20;;
9974;SDS011;5028;50.974;4.968;2022-08-19T13:43:38;4.78;;;3.47;;
9974;SDS011;5028;50.974;4.968;2022-08-19T13:46:13;3.35;;;3.05;;
9974;SDS011;5028;50.974;4.968;2022-08-19T13:48:42;3.55;;;3.25;;
9974;SDS011;5028;50.974;4.968;2022-08-19T13:51:18;3.95;;;3.40;;
9974;SDS011;5028;50.974;4.968;2022-08-19T13:53:47;3.40;;;3.10;;
9974;SDS011;5028;50.974;4.968;2022-08-19T13:56:23;5.13;;;3.05;;
9974;SDS011;5028;50.974;4.968;2022-08-19T13:58:52;2.92;;;2.60;;
9974;SDS011;5028;50.974;4.968;2022-08-19T14:01:27;5.07;;;2.90;;
9974;SDS011;5028;50.974;4.968;2022-08-19T14:03:57;3.70;;;3.40;;
9974;SDS011;5028;50.974;4.968;2022-08-19T14:06:33;3.50;;;3.15;;
9974;SDS011;5028;50.974;4.968;2022-08-19T14:09:01;3.30;;;3.10;;
9974;SDS011;5028;50.974;4.968;2022-08-19T14:11:37;3.20;;;2.85;;
9974;SDS011;5028;50.974;4.968;2022-08-19T14:14:06;3.05;;;2.78;;
9974;SDS011;5028;50.974;4.968;2022-08-19T14:16:48;3.22;;;3.03;;
9974;SDS011;5028;50.974;4.968;2022-08-19T14:19:29;3.92;;;3.63;;
9974;SDS011;5028;50.974;4.968;2022-08-19T14:22:07;3.67;;;3.38;;
9974;SDS011;5028;50.974;4.968;2022-08-19T14:24:39;3.97;;;3.58;;
9974;SDS011;5028;50.974;4.968;2022-08-19T14:27:14;3.60;;;3.30;;
9974;SDS011;5028;50.974;4.968;2022-08-19T14:29:43;4.40;;;3.13;;
9974;SDS011;5028;50.974;4.968;2022-08-19T14:32:18;5.18;;;2.97;;
9974;SDS011;5028;50.974;4.968;2022-08-19T14:34:48;3.70;;;3.40;;
9974;SDS011;5028;50.974;4.968;2022-08-19T14:37:26;3.30;;;3.00;;
9974;SDS011;5028;50.974;4.968;2022-08-19T14:39:54;2.97;;;2.78;;
9974;SDS011;5028;50.974;4.968;2022-08-19T14:42:30;3.00;;;2.58;;
9974;SDS011;5028;50.974;4.968;2022-08-19T14:44:58;2.58;;;2.38;;
9974;SDS011;5028;50.974;4.968;2022-08-19T14:47:33;2.90;;;2.45;;
9974;SDS011;5028;50.974;4.968;2022-08-19T14:50:05;4.22;;;2.40;;
9974;SDS011;5028;50.974;4.968;2022-08-19T14:52:45;4.28;;;2.70;;
9974;SDS011;5028;50.974;4.968;2022-08-19T14:55:15;6.88;;;2.63;;
9974;SDS011;5028;50.974;4.968;2022-08-19T14:57:50;4.60;;;2.55;;
9974;SDS011;5028;50.974;4.968;2022-08-19T15:00:19;2.67;;;2.40;;
9974;SDS011;5028;50.974;4.968;2022-08-19T15:02:53;2.63;;;2.15;;
9974;SDS011;5028;50.974;4.968;2022-08-19T15:05:22;2.65;;;1.80;;
9974;SDS011;5028;50.974;4.968;2022-08-19T15:07:58;2.38;;;1.90;;
9974;SDS011;5028;50.974;4.968;2022-08-19T15:10:30;3.45;;;1.70;;
9974;SDS011;5028;50.974;4.968;2022-08-19T15:13:05;4.80;;;1.75;;
9974;SDS011;5028;50.974;4.968;2022-08-19T15:15:35;2.58;;;1.52;;
9974;SDS011;5028;50.974;4.968;2022-08-19T15:18:18;2.88;;;1.65;;
9974;SDS011;5028;50.974;4.968;2022-08-19T15:20:59;1.73;;;1.40;;
9974;SDS011;5028;50.974;4.968;2022-08-19T15:23:36;2.60;;;1.30;;
9974;SDS011;5028;50.974;4.968;2022-08-19T15:26:04;3.45;;;1.30;;
9974;SDS011;5028;50.974;4.968;2022-08-19T15:28:41;1.93;;;1.30;;
9974;SDS011;5028;50.974;4.968;2022-08-19T15:31:10;1.23;;;1.13;;
9974;SDS011;5028;50.974;4.968;2022-08-19T15:33:54;1.63;;;1.20;;
9974;SDS011;5028;50.974;4.968;2022-08-19T15:36:24;1.45;;;1.20;;
9974;SDS011;5028;50.974;4.968;2022-08-19T15:39:01;4.33;;;1.40;;
9974;SDS011;5028;50.974;4.968;2022-08-19T15:41:31;4.53;;;1.20;;
9974;SDS011;5028;50.974;4.968;2022-08-19T15:44:08;2.20;;;1.30;;
9974;SDS011;5028;50.974;4.968;2022-08-19T15:46:39;4.88;;;0.95;;
9974;SDS011;5028;50.974;4.968;2022-08-19T15:49:17;1.40;;;0.70;;
9974;SDS011;5028;50.974;4.968;2022-08-19T15:51:47;0.80;;;0.80;;